createdAt,value
2019-04-16T00:01:28.390Z,74.20
2019-04-16T00:04:05.444Z,74.62
2019-04-16T00:07:06.147Z,75.17
2019-04-16T00:09:55.247Z,74.75
2019-04-16T00:12:43.637Z,75.28
2019-04-16T00:15:13.060Z,75.46
2019-04-16T00:17:44.346Z,75.58
2019-04-16T00:20:13.507Z,75.80
2019-04-16T00:22:55.808Z,76.33
2019-04-16T00:25:25.138Z,75.87
2019-04-16T00:27:54.569Z,75.61
2019-04-16T00:30:24.019Z,75.78
2019-04-16T00:32:54.921Z,75.95
2019-04-16T00:35:24.306Z,76.00
2019-04-16T00:37:53.963Z,75.97
2019-04-16T00:40:26.392Z,76.60
2019-04-16T00:42:54.421Z,76.59
2019-04-16T00:45:23.745Z,76.94
2019-04-16T00:47:53.141Z,77.39
2019-04-16T00:50:22.489Z,77.50
2019-04-16T00:52:53.991Z,77.51
2019-04-16T00:55:23.382Z,77.83
2019-04-16T00:57:52.768Z,77.91
2019-04-16T01:00:22.109Z,78.54
2019-04-16T01:02:51.471Z,79.05
2019-04-16T01:05:20.972Z,78.97
2019-04-16T01:07:50.338Z,79.30
2019-04-16T01:10:19.696Z,79.40
2019-04-16T01:12:49.018Z,79.61
2019-04-16T01:15:18.411Z,79.53
2019-04-16T01:17:47.794Z,79.91
2019-04-16T01:20:17.135Z,80.06
2019-04-16T01:22:47.457Z,79.79
2019-04-16T01:25:16.946Z,79.78
2019-04-16T01:27:51.551Z,79.71
2019-04-16T01:30:31.102Z,79.78
2019-04-16T01:33:07.455Z,79.92
2019-04-16T01:36:01.874Z,80.02
2019-04-16T01:39:13.590Z,80.61
2019-04-16T01:41:27.507Z,80.20
2019-04-16T01:43:57.282Z,80.55
2019-04-16T01:46:27.414Z,80.77
2019-04-16T01:48:56.760Z,80.67
2019-04-16T01:51:26.142Z,80.85
2019-04-16T01:53:55.537Z,80.92
2019-04-16T01:56:27.968Z,80.77
2019-04-16T01:58:56.003Z,80.73
2019-04-16T02:01:25.954Z,80.63
2019-04-16T02:03:55.391Z,80.72
2019-04-16T02:06:25.963Z,80.29
2019-04-16T02:08:56.056Z,79.61
2019-04-16T02:11:25.431Z,79.38
2019-04-16T02:13:54.828Z,78.94
2019-04-16T02:16:25.216Z,79.14
2019-04-16T02:18:55.320Z,78.65
2019-04-16T02:21:24.702Z,79.80
2019-04-16T02:23:54.065Z,79.09
2019-04-16T02:26:24.372Z,78.60
2019-04-16T02:28:56.509Z,78.50
2019-04-16T02:31:24.861Z,78.05
2019-04-16T02:33:54.361Z,77.67
2019-04-16T02:36:23.746Z,77.25
2019-04-16T02:38:53.778Z,76.64
2019-04-16T02:41:24.670Z,76.02
2019-04-16T02:43:54.211Z,75.88
2019-04-16T02:46:23.564Z,75.25
2019-04-16T02:48:52.890Z,75.96
2019-04-16T02:51:41.721Z,75.12
2019-04-16T02:54:36.286Z,75.04
2019-04-16T02:57:26.561Z,74.96
2019-04-16T02:59:56.481Z,74.70
2019-04-16T03:02:45.110Z,74.26
2019-04-16T03:05:20.983Z,74.02
2019-04-16T03:07:50.330Z,74.16
2019-04-16T03:10:19.693Z,74.05
2019-04-16T03:12:51.843Z,74.37
2019-04-16T03:15:40.301Z,74.83
2019-04-16T03:18:11.669Z,74.99
2019-04-16T03:20:40.924Z,74.97
2019-04-16T03:23:10.313Z,75.01
2019-04-16T03:25:41.329Z,75.15
2019-04-16T03:28:11.508Z,75.61
2019-04-16T03:30:42.877Z,76.12
2019-04-16T03:33:14.301Z,76.09
2019-04-16T03:35:43.203Z,76.33
2019-04-16T03:38:12.578Z,77.16
2019-04-16T03:40:41.937Z,76.05
2019-04-16T03:43:11.322Z,76.41
2019-04-16T03:45:41.176Z,76.78
2019-04-16T03:48:10.608Z,77.05
2019-04-16T03:50:39.946Z,77.10
2019-04-16T03:53:09.310Z,76.88
2019-04-16T03:55:38.990Z,77.06
2019-04-16T03:58:08.393Z,76.73
2019-04-16T04:00:43.873Z,76.54
2019-04-16T04:03:10.556Z,76.86
2019-04-16T04:05:39.941Z,77.06
2019-04-16T04:08:09.360Z,77.08
2019-04-16T04:10:38.704Z,76.70
2019-04-16T04:13:08.104Z,75.99
2019-04-16T04:15:37.504Z,75.21
2019-04-16T04:18:14.171Z,75.66
2019-04-16T04:20:43.579Z,75.93
2019-04-16T04:23:12.985Z,75.19
2019-04-16T04:25:42.389Z,75.11
2019-04-16T04:28:11.757Z,74.50
2019-04-16T04:30:41.117Z,74.04
2019-04-16T04:33:12.170Z,73.44
2019-04-16T04:35:41.489Z,73.31
2019-04-16T04:38:10.862Z,73.16
2019-04-16T04:40:44.739Z,72.40
2019-04-16T04:43:11.327Z,72.12
2019-04-16T04:45:41.518Z,72.00
2019-04-16T04:48:11.972Z,71.42
2019-04-16T04:50:41.630Z,71.53
2019-04-16T04:53:11.070Z,71.03
2019-04-16T04:55:40.409Z,70.47
2019-04-16T04:58:09.769Z,70.24
2019-04-16T05:00:41.203Z,70.10
2019-04-16T05:03:15.529Z,69.67
2019-04-16T05:05:48.524Z,70.02
2019-04-16T05:08:17.911Z,69.78
2019-04-16T05:10:58.322Z,69.92
2019-04-16T05:13:18.463Z,70.22
2019-04-16T05:15:48.118Z,70.63
2019-04-16T05:18:17.502Z,70.13
2019-04-16T05:20:47.628Z,69.33
2019-04-16T05:23:17.228Z,69.16
2019-04-16T05:25:46.615Z,69.03
2019-04-16T05:28:16.206Z,68.79
2019-04-16T05:30:45.571Z,68.89
2019-04-16T05:33:14.913Z,68.15
2019-04-16T05:35:44.513Z,68.33
2019-04-16T05:38:13.905Z,68.06
2019-04-16T05:40:43.248Z,67.02
2019-04-16T05:43:12.583Z,67.49
2019-04-16T05:45:41.948Z,67.73
2019-04-16T05:48:11.466Z,67.32
2019-04-16T05:50:40.815Z,67.20
2019-04-16T05:53:12.797Z,67.33
2019-04-16T05:56:15.157Z,67.93
2019-04-16T05:58:44.614Z,67.37
2019-04-16T06:01:26.218Z,66.71
2019-04-16T06:03:55.603Z,66.59
2019-04-16T06:06:24.959Z,65.93
2019-04-16T06:08:56.110Z,66.24
2019-04-16T06:11:29.106Z,65.70
2019-04-16T06:14:08.727Z,65.13
2019-04-16T06:16:49.229Z,65.51
2019-04-16T06:19:34.307Z,64.85
2019-04-16T06:22:34.585Z,65.19
2019-04-16T06:25:21.141Z,65.11
2019-04-16T06:28:09.434Z,64.05
2019-04-16T06:31:04.976Z,64.75
2019-04-16T06:33:46.200Z,64.28
2019-04-16T06:36:49.600Z,63.96
2019-04-16T06:39:40.997Z,63.12
2019-04-16T06:42:23.517Z,63.16
2019-04-16T06:45:01.591Z,62.74
2019-04-16T06:47:52.071Z,62.17
2019-04-16T06:50:49.746Z,62.17
2019-04-16T06:53:39.485Z,61.61
2019-04-16T06:56:27.787Z,61.71
2019-04-16T06:59:34.773Z,62.21
2019-04-16T07:02:27.624Z,62.90
2019-04-16T07:05:21.702Z,63.26
2019-04-16T07:08:36.915Z,64.19
2019-04-16T07:11:01.586Z,63.99
2019-04-16T07:13:30.970Z,63.06
2019-04-16T07:16:00.441Z,63.69
2019-04-16T07:18:29.779Z,63.69
2019-04-16T07:20:59.144Z,63.29
2019-04-16T07:23:28.560Z,63.52
2019-04-16T07:25:57.941Z,64.15
2019-04-16T07:28:36.148Z,64.10
2019-04-16T07:31:32.769Z,63.75
2019-04-16T07:34:11.028Z,63.08
2019-04-16T07:37:17.602Z,63.36
2019-04-16T07:40:14.382Z,63.11
2019-04-16T07:43:06.047Z,62.97
2019-04-16T07:45:54.525Z,62.18
2019-04-16T07:48:33.104Z,61.88
2019-04-16T07:51:20.135Z,61.60
2019-04-16T07:54:07.301Z,62.20
2019-04-16T07:56:38.214Z,61.75
2019-04-16T07:59:07.613Z,61.57
2019-04-16T08:01:37.066Z,61.27
2019-04-16T08:04:06.471Z,60.88
2019-04-16T08:06:35.794Z,59.34
2019-04-16T08:09:07.547Z,60.48
2019-04-16T08:11:36.929Z,60.03
2019-04-16T08:14:09.819Z,59.90
2019-04-16T08:16:47.193Z,59.12
2019-04-16T08:19:08.594Z,59.90
2019-04-16T08:21:40.650Z,60.52
2019-04-16T08:24:12.480Z,61.02
2019-04-16T08:26:45.064Z,61.17
2019-04-16T08:29:12.969Z,60.90
2019-04-16T08:31:45.567Z,60.05
2019-04-16T08:34:14.952Z,59.03
2019-04-16T08:36:44.356Z,58.07
2019-04-16T08:39:14.975Z,57.38
2019-04-16T08:41:44.353Z,56.69
2019-04-16T08:44:13.738Z,56.60
2019-04-16T08:46:43.173Z,56.35
2019-04-16T08:49:14.801Z,56.15
2019-04-16T08:51:43.827Z,55.77
2019-04-16T08:54:17.667Z,55.89
2019-04-16T08:56:44.290Z,55.56
2019-04-16T08:59:13.691Z,53.99
2019-04-16T09:01:43.077Z,53.51
2019-04-16T09:04:12.421Z,54.73
2019-04-16T09:06:42.591Z,54.68
2019-04-16T09:09:50.290Z,54.81
2019-04-16T09:12:19.683Z,55.05
2019-04-16T09:14:55.968Z,54.17
2019-04-16T09:17:30.500Z,53.76
2019-04-16T09:20:06.338Z,52.39
2019-04-16T09:22:48.041Z,52.96
2019-04-16T09:25:16.472Z,53.32
2019-04-16T09:27:49.635Z,52.81
2019-04-16T09:30:36.540Z,52.72
2019-04-16T09:33:24.832Z,51.55
2019-04-16T09:36:19.454Z,51.35
2019-04-16T09:39:07.802Z,52.01
2019-04-16T09:41:40.446Z,52.77
2019-04-16T09:44:09.885Z,51.73
2019-04-16T09:46:59.420Z,51.22
2019-04-16T09:49:10.324Z,52.34
2019-04-16T09:51:39.671Z,49.22
2019-04-16T09:54:12.310Z,49.22
2019-04-16T09:56:40.119Z,48.56
2019-04-16T09:59:27.173Z,48.13
2019-04-16T10:02:01.845Z,49.19
2019-04-16T10:04:31.205Z,50.51
2019-04-16T10:07:00.604Z,49.97
2019-04-16T10:09:29.951Z,48.35
2019-04-16T10:11:59.328Z,48.09
2019-04-16T10:14:29.105Z,48.37
2019-04-16T10:16:58.425Z,49.42
2019-04-16T10:19:27.800Z,50.15
2019-04-16T10:21:57.185Z,49.87
2019-04-16T10:24:54.664Z,50.00
2019-04-16T10:27:32.488Z,49.39
2019-04-16T10:30:02.065Z,48.15
2019-04-16T10:32:31.435Z,46.88
2019-04-16T10:35:00.757Z,46.26
2019-04-16T10:37:30.246Z,47.11
2019-04-16T10:40:13.574Z,47.67
2019-04-16T10:43:00.813Z,47.54
2019-04-16T10:45:47.982Z,45.58
2019-04-16T10:48:43.186Z,45.04
2019-04-16T10:51:31.769Z,43.73
2019-04-16T10:54:20.053Z,44.70
2019-04-16T10:57:10.241Z,46.93
2019-04-16T11:00:05.890Z,45.85
2019-04-16T11:02:47.944Z,43.94
2019-04-16T11:05:30.876Z,42.15
2019-04-16T11:08:01.018Z,42.97
2019-04-16T11:10:30.424Z,44.26
2019-04-16T11:13:00.552Z,44.94
2019-04-16T11:15:30.136Z,44.97
2019-04-16T11:17:59.630Z,45.62
2019-04-16T11:20:29.055Z,45.45
2019-04-16T11:22:58.479Z,46.98
2019-04-16T11:25:27.893Z,47.54
2019-04-16T11:27:57.570Z,47.97
2019-04-16T11:30:35.554Z,55.02
2019-04-16T11:33:05.214Z,55.02
2019-04-16T11:35:34.740Z,58.75
2019-04-16T11:38:04.321Z,61.54
2019-04-16T11:40:33.710Z,65.39
2019-04-16T11:43:03.308Z,67.62
2019-04-16T11:45:33.670Z,67.54
2019-04-16T11:48:03.190Z,69.10
2019-04-16T11:50:35.860Z,70.50
2019-04-16T11:53:03.982Z,70.12
2019-04-16T11:55:33.367Z,71.43
2019-04-16T11:58:02.917Z,70.84
2019-04-16T12:00:40.241Z,70.68
2019-04-16T12:03:16.962Z,70.91
2019-04-16T12:06:27.035Z,70.16
2019-04-16T12:09:04.438Z,68.03
2019-04-16T12:11:48.517Z,66.24
2019-04-16T12:14:42.417Z,64.40
2019-04-16T12:17:18.455Z,65.43
2019-04-16T12:20:06.777Z,63.83
2019-04-16T12:22:55.633Z,62.41
2019-04-16T12:25:46.959Z,62.53
2019-04-16T12:28:44.342Z,62.59
2019-04-16T12:31:32.605Z,59.10
2019-04-16T12:34:19.727Z,59.51
2019-04-16T12:36:59.454Z,60.37
2019-04-16T12:39:36.982Z,60.94
2019-04-16T12:42:31.477Z,59.30
2019-04-16T12:45:19.763Z,56.42
2019-04-16T12:48:06.698Z,58.09
2019-04-16T12:50:42.359Z,56.39
2019-04-16T12:53:24.352Z,55.56
2019-04-16T12:56:11.426Z,58.60
2019-04-16T12:58:51.794Z,59.66
2019-04-16T13:01:36.513Z,60.17
2019-04-16T13:04:12.882Z,60.89
2019-04-16T13:07:04.624Z,61.60
2019-04-16T13:09:53.074Z,60.21
2019-04-16T13:12:27.872Z,59.87
2019-04-16T13:15:14.924Z,58.19
2019-04-16T13:18:21.605Z,57.38
2019-04-16T13:21:06.260Z,55.70
2019-04-16T13:23:55.573Z,55.46
2019-04-16T13:26:45.256Z,54.30
2019-04-16T13:29:17.452Z,53.53
2019-04-16T13:31:46.944Z,50.54
2019-04-16T13:34:18.667Z,48.79
2019-04-16T13:36:51.328Z,48.79
2019-04-16T13:39:26.634Z,44.67
2019-04-16T13:41:56.050Z,44.40
2019-04-16T13:44:27.840Z,45.45
2019-04-16T13:47:01.403Z,45.73
2019-04-16T13:49:33.402Z,45.57
2019-04-16T13:52:02.947Z,45.57
2019-04-16T13:54:54.749Z,47.27
2019-04-16T13:57:24.559Z,47.27
2019-04-16T14:00:13.106Z,47.45
2019-04-16T14:02:57.059Z,46.93
2019-04-16T14:05:26.546Z,43.52
2019-04-16T14:07:55.914Z,41.26
2019-04-16T14:10:25.619Z,39.91
2019-04-16T14:12:58.085Z,39.36
2019-04-16T14:15:35.679Z,38.99
2019-04-16T14:18:02.824Z,38.66
2019-04-16T14:20:32.210Z,40.23
2019-04-16T14:23:01.630Z,39.96
2019-04-16T14:25:31.226Z,40.26
2019-04-16T14:28:03.177Z,42.32
2019-04-16T14:30:39.567Z,44.16
2019-04-16T14:33:09.012Z,46.01
2019-04-16T14:35:40.351Z,46.01
2019-04-16T14:38:10.024Z,47.92
2019-04-16T14:40:39.634Z,53.40
2019-04-16T14:43:11.191Z,58.72
2019-04-16T14:45:58.338Z,60.18
2019-04-16T14:48:19.664Z,61.78
2019-04-16T14:50:49.037Z,61.23
2019-04-16T14:53:31.065Z,60.90
2019-04-16T14:56:04.794Z,61.35
2019-04-16T14:59:02.277Z,58.39
2019-04-16T15:02:06.013Z,58.01
2019-04-16T15:04:57.069Z,57.91
2019-04-16T15:07:36.678Z,57.68
2019-04-16T15:10:29.462Z,54.21
2019-04-16T15:13:16.850Z,53.08
2019-04-16T15:16:13.193Z,51.72
2019-04-16T15:19:04.743Z,52.31
2019-04-16T15:22:03.686Z,52.19
2019-04-16T15:25:04.286Z,51.61
2019-04-16T15:27:49.473Z,52.30
2019-04-16T15:30:35.305Z,51.23
2019-04-16T15:33:32.519Z,50.79
2019-04-16T15:36:20.854Z,48.28
2019-04-16T15:39:21.588Z,46.59
2019-04-16T15:42:21.812Z,46.01
2019-04-16T15:45:13.204Z,45.35
2019-04-16T15:48:00.276Z,46.74
2019-04-16T15:50:38.929Z,48.56
2019-04-16T15:53:17.974Z,50.65
2019-04-16T15:55:55.348Z,51.83
2019-04-16T15:58:40.765Z,52.94
2019-04-16T16:01:27.914Z,53.38
2019-04-16T16:04:28.626Z,53.07
2019-04-16T16:07:01.327Z,52.68
2019-04-16T16:10:04.751Z,51.71
2019-04-16T16:12:34.454Z,51.86
2019-04-16T16:15:07.647Z,52.87
2019-04-16T16:17:35.174Z,52.02
2019-04-16T16:20:09.582Z,51.81
2019-04-16T16:22:36.070Z,51.02
2019-04-16T16:25:06.563Z,51.13
2019-04-16T16:27:41.675Z,51.02
2019-04-16T16:30:07.712Z,50.58
2019-04-16T16:32:37.121Z,50.28
2019-04-16T16:35:07.137Z,50.68
2019-04-16T16:37:37.500Z,51.21
2019-04-16T16:40:07.123Z,50.91
2019-04-16T16:42:36.522Z,49.87
2019-04-16T16:45:07.512Z,49.76
2019-04-16T16:47:40.145Z,49.75
2019-04-16T16:50:12.382Z,48.84
2019-04-16T16:53:00.695Z,48.75
2019-04-16T16:55:42.207Z,50.11
2019-04-16T16:58:30.211Z,48.17
2019-04-16T17:01:16.969Z,48.17
2019-04-16T17:04:08.586Z,47.83
2019-04-16T17:06:38.007Z,48.14
2019-04-16T17:09:09.185Z,48.66
2019-04-16T17:11:40.151Z,49.02
2019-04-16T17:14:09.928Z,49.49
2019-04-16T17:16:39.302Z,49.85
2019-04-16T17:19:08.881Z,51.54
2019-04-16T17:21:38.290Z,52.75
2019-04-16T17:24:07.688Z,53.72
2019-04-16T17:26:37.077Z,53.63
2019-04-16T17:29:06.689Z,53.58
2019-04-16T17:31:36.295Z,55.20
2019-04-16T17:34:05.653Z,56.24
2019-04-16T17:36:35.190Z,56.73
2019-04-16T17:39:10.526Z,56.94
2019-04-16T17:41:43.840Z,57.22
2019-04-16T17:44:20.230Z,57.64
2019-04-16T17:46:59.542Z,57.74
2019-04-16T17:49:36.667Z,55.95
2019-04-16T17:52:12.636Z,56.33
2019-04-16T17:55:07.046Z,61.91
2019-04-16T17:57:55.693Z,60.29
2019-04-16T18:00:47.105Z,59.83
2019-04-16T18:03:47.678Z,59.44
2019-04-16T18:06:24.650Z,60.02
2019-04-16T18:09:03.059Z,57.47
2019-04-16T18:11:47.402Z,56.73
2019-04-16T18:14:48.301Z,57.27
2019-04-16T18:17:46.921Z,57.27
2019-04-16T18:20:56.768Z,57.34
2019-04-16T18:23:30.416Z,57.52
2019-04-16T18:26:27.669Z,56.71
2019-04-16T18:29:03.513Z,56.72
2019-04-16T18:31:46.305Z,57.63
2019-04-16T18:34:26.647Z,57.39
2019-04-16T18:37:16.087Z,57.21
2019-04-16T18:39:52.600Z,56.33
2019-04-16T18:42:32.785Z,56.49
2019-04-16T18:45:19.698Z,56.43
2019-04-16T18:48:04.703Z,56.22
2019-04-16T18:50:31.660Z,55.86
2019-04-16T18:53:01.063Z,54.15
2019-04-16T18:55:30.539Z,54.16
2019-04-16T18:58:00.758Z,54.15
2019-04-16T19:00:42.980Z,53.43
2019-04-16T19:03:15.127Z,54.10
2019-04-16T19:05:43.550Z,54.13
2019-04-16T19:08:12.966Z,53.08
2019-04-16T19:10:42.499Z,53.25
2019-04-16T19:13:11.949Z,52.94
2019-04-16T19:15:41.303Z,53.99
2019-04-16T19:18:19.814Z,53.66
2019-04-16T19:20:42.096Z,53.51
2019-04-16T19:23:11.445Z,54.19
2019-04-16T19:25:40.824Z,53.75
2019-04-16T19:28:10.606Z,52.50
2019-04-16T19:30:40.104Z,52.84
2019-04-16T19:33:09.551Z,53.16
2019-04-16T19:35:38.924Z,51.98
2019-04-16T19:38:08.857Z,52.71
2019-04-16T19:40:40.374Z,52.46
2019-04-16T19:43:09.780Z,52.28
2019-04-16T19:45:40.618Z,52.39
2019-04-16T19:48:10.308Z,52.03
2019-04-16T19:50:39.686Z,52.04
2019-04-16T19:53:13.780Z,52.24
2019-04-16T19:55:40.236Z,51.95
2019-04-16T19:58:09.582Z,51.89
2019-04-16T20:00:39.017Z,51.58
2019-04-16T20:03:08.383Z,51.04
2019-04-16T20:05:37.880Z,50.84
2019-04-16T20:08:07.306Z,50.96
2019-04-16T20:10:36.714Z,51.09
2019-04-16T20:13:06.049Z,49.82
2019-04-16T20:15:35.448Z,50.17
2019-04-16T20:18:07.080Z,50.36
2019-04-16T20:20:35.975Z,50.11
2019-04-16T20:23:05.863Z,49.28
2019-04-16T20:25:35.688Z,49.29
2019-04-16T20:28:09.236Z,47.91
2019-04-16T20:30:36.539Z,47.78
2019-04-16T20:33:06.068Z,47.82
2019-04-16T20:35:35.531Z,47.88
2019-04-16T20:38:04.905Z,47.51
2019-04-16T20:40:34.272Z,47.27
2019-04-16T20:43:03.807Z,47.12
2019-04-16T20:45:33.110Z,46.67
2019-04-16T20:48:02.492Z,46.85
2019-04-16T20:50:31.925Z,47.19
2019-04-16T20:53:06.189Z,47.07
2019-04-16T20:55:33.883Z,47.30
2019-04-16T20:58:03.386Z,47.30
2019-04-16T21:00:34.044Z,47.18
2019-04-16T21:03:03.856Z,47.39
2019-04-16T21:05:35.757Z,47.42
2019-04-16T21:08:04.630Z,47.35
2019-04-16T21:10:35.694Z,47.06
2019-04-16T21:13:05.247Z,47.33
2019-04-16T21:15:34.642Z,46.94
2019-04-16T21:18:04.016Z,46.94
2019-04-16T21:20:33.453Z,46.83
2019-04-16T21:23:03.489Z,46.81
2019-04-16T21:25:33.336Z,46.59
2019-04-16T21:28:24.747Z,45.90
2019-04-16T21:30:58.589Z,46.06
2019-04-16T21:33:36.030Z,46.29
2019-04-16T21:36:06.033Z,45.85
2019-04-16T21:38:48.974Z,46.01
2019-04-16T21:41:18.315Z,46.29
2019-04-16T21:43:47.819Z,46.24
2019-04-16T21:46:20.149Z,46.65
2019-04-16T21:48:48.247Z,46.17
2019-04-16T21:51:19.477Z,46.79
2019-04-16T21:53:48.701Z,46.62
2019-04-16T21:56:18.055Z,46.17
2019-04-16T21:58:50.156Z,46.29
2019-04-16T22:01:35.782Z,46.92
2019-04-16T22:04:13.500Z,46.96
2019-04-16T22:06:40.577Z,47.23
2019-04-16T22:09:10.021Z,46.39
2019-04-16T22:11:43.289Z,46.78
2019-04-16T22:14:10.580Z,47.24
2019-04-16T22:16:39.929Z,46.85
2019-04-16T22:19:11.109Z,46.38
2019-04-16T22:21:42.834Z,46.33
2019-04-16T22:24:11.446Z,46.53
2019-04-16T22:26:40.802Z,46.20
2019-04-16T22:29:15.351Z,46.41
2019-04-16T22:31:41.244Z,46.47
2019-04-16T22:34:10.594Z,46.46
2019-04-16T22:36:39.945Z,46.32
2019-04-16T22:39:22.913Z,46.54
2019-04-16T22:42:07.754Z,46.17
2019-04-16T22:45:05.068Z,46.52
2019-04-16T22:47:34.654Z,46.61
2019-04-16T22:50:14.762Z,46.70
2019-04-16T22:52:35.525Z,46.57
2019-04-16T22:55:05.055Z,46.76
2019-04-16T22:57:34.461Z,46.53
2019-04-16T23:00:08.666Z,47.15
2019-04-16T23:02:36.806Z,47.05
2019-04-16T23:05:06.320Z,47.25
2019-04-16T23:07:36.620Z,47.43
2019-04-16T23:10:06.526Z,47.53
2019-04-16T23:12:35.886Z,47.43
2019-04-16T23:15:06.771Z,47.32
2019-04-16T23:17:36.137Z,47.47
2019-04-16T23:20:05.750Z,47.32
2019-04-16T23:22:35.088Z,47.32
2019-04-16T23:25:04.869Z,47.27
2019-04-16T23:27:37.178Z,47.15
2019-04-16T23:30:05.619Z,47.05
2019-04-16T23:32:35.014Z,47.26
2019-04-16T23:35:09.186Z,47.44
2019-04-16T23:37:35.745Z,47.45
2019-04-16T23:40:07.475Z,47.41
2019-04-16T23:42:38.425Z,47.40
2019-04-16T23:45:33.436Z,47.40
2019-04-16T23:48:15.535Z,47.86
2019-04-16T23:50:54.701Z,47.89
2019-04-16T23:54:01.153Z,48.08
2019-04-16T23:56:55.615Z,48.51
2019-04-16T23:59:35.957Z,48.74
